Terminal Aerodrome Forecast
Issued by NWS Shreveport, LA

Home | Current Version | Previous Version | Text Only | Print | Product List | Glossary On
Versions: 1 2 3 4 5 6 7 8 9 10 11 12
383
FTUS44 KSHV 131146
TAFTXK
TAF
KTXK 131146Z 1312/1412 06006KT P6SM SKC
     FM131600 09010KT P6SM SKC
     FM140300 11010KT P6SM BKN040 OVC250
     FM141100 13007KT P6SM OVC025=

USA.gov is the U.S. government's official web portal to all federal, state and local government web resources and services.